sensor_id;sensor_type;location;lat;lon;timestamp;pressure;altitude;pressure_sealevel;temperature
19282;BMP180;9774;52.034;5.342;2022-11-15T00:00:09;100646.00;;;13.70
19282;BMP180;9774;52.034;5.342;2022-11-15T00:02:38;100649.00;;;13.70
19282;BMP180;9774;52.034;5.342;2022-11-15T00:05:05;100640.00;;;13.70
19282;BMP180;9774;52.034;5.342;2022-11-15T00:07:34;100637.00;;;13.70
19282;BMP180;9774;52.034;5.342;2022-11-15T00:10:01;100644.00;;;13.80
19282;BMP180;9774;52.034;5.342;2022-11-15T00:12:29;100642.00;;;13.80
19282;BMP180;9774;52.034;5.342;2022-11-15T00:14:56;100637.00;;;13.80
19282;BMP180;9774;52.034;5.342;2022-11-15T00:17:24;100641.00;;;13.70
19282;BMP180;9774;52.034;5.342;2022-11-15T00:19:52;100632.00;;;13.80
19282;BMP180;9774;52.034;5.342;2022-11-15T00:22:19;100634.00;;;13.80
19282;BMP180;9774;52.034;5.342;2022-11-15T00:24:47;100633.00;;;13.80
19282;BMP180;9774;52.034;5.342;2022-11-15T00:27:15;100635.00;;;13.80
19282;BMP180;9774;52.034;5.342;2022-11-15T00:29:42;100630.00;;;13.80
19282;BMP180;9774;52.034;5.342;2022-11-15T00:32:10;100627.00;;;13.80
19282;BMP180;9774;52.034;5.342;2022-11-15T00:34:37;100624.00;;;13.80
19282;BMP180;9774;52.034;5.342;2022-11-15T00:37:05;100629.00;;;13.80
19282;BMP180;9774;52.034;5.342;2022-11-15T00:39:33;100634.00;;;13.80
19282;BMP180;9774;52.034;5.342;2022-11-15T00:42:01;100628.00;;;13.80
19282;BMP180;9774;52.034;5.342;2022-11-15T00:44:29;100627.00;;;13.80
19282;BMP180;9774;52.034;5.342;2022-11-15T00:46:56;100624.00;;;13.80
19282;BMP180;9774;52.034;5.342;2022-11-15T00:49:23;100615.00;;;13.80
19282;BMP180;9774;52.034;5.342;2022-11-15T00:51:50;100618.00;;;13.80
19282;BMP180;9774;52.034;5.342;2022-11-15T00:54:18;100612.00;;;13.80
19282;BMP180;9774;52.034;5.342;2022-11-15T00:56:45;100617.00;;;13.80
19282;BMP180;9774;52.034;5.342;2022-11-15T00:59:13;100611.00;;;13.80
19282;BMP180;9774;52.034;5.342;2022-11-15T01:01:41;100613.00;;;13.90
19282;BMP180;9774;52.034;5.342;2022-11-15T01:04:08;100608.00;;;13.90
19282;BMP180;9774;52.034;5.342;2022-11-15T01:06:35;100598.00;;;13.90
19282;BMP180;9774;52.034;5.342;2022-11-15T01:09:03;100594.00;;;13.90
19282;BMP180;9774;52.034;5.342;2022-11-15T01:11:30;100594.00;;;13.90
19282;BMP180;9774;52.034;5.342;2022-11-15T01:13:57;100594.00;;;14.00
19282;BMP180;9774;52.034;5.342;2022-11-15T01:16:26;100594.00;;;14.00
19282;BMP180;9774;52.034;5.342;2022-11-15T01:18:53;100588.00;;;14.00
19282;BMP180;9774;52.034;5.342;2022-11-15T01:21:21;100590.00;;;14.00
19282;BMP180;9774;52.034;5.342;2022-11-15T01:23:48;100589.00;;;14.00
19282;BMP180;9774;52.034;5.342;2022-11-15T01:26:16;100586.00;;;14.10
19282;BMP180;9774;52.034;5.342;2022-11-15T01:28:43;100593.00;;;14.10
19282;BMP180;9774;52.034;5.342;2022-11-15T01:31:13;100582.00;;;14.10
19282;BMP180;9774;52.034;5.342;2022-11-15T01:33:42;100580.00;;;14.10
19282;BMP180;9774;52.034;5.342;2022-11-15T01:36:12;100578.00;;;14.10
19282;BMP180;9774;52.034;5.342;2022-11-15T01:38:39;100571.00;;;14.10
19282;BMP180;9774;52.034;5.342;2022-11-15T01:41:11;100573.00;;;14.20
19282;BMP180;9774;52.034;5.342;2022-11-15T01:43:40;100572.00;;;14.20
19282;BMP180;9774;52.034;5.342;2022-11-15T01:46:21;100574.00;;;14.10
19282;BMP180;9774;52.034;5.342;2022-11-15T01:48:52;100560.00;;;14.20
19282;BMP180;9774;52.034;5.342;2022-11-15T01:51:22;100566.00;;;14.20
19282;BMP180;9774;52.034;5.342;2022-11-15T01:53:54;100569.00;;;14.20
19282;BMP180;9774;52.034;5.342;2022-11-15T01:56:24;100563.00;;;14.30
19282;BMP180;9774;52.034;5.342;2022-11-15T01:58:54;100569.00;;;14.30
19282;BMP180;9774;52.034;5.342;2022-11-15T02:01:23;100572.00;;;14.30
19282;BMP180;9774;52.034;5.342;2022-11-15T02:03:54;100558.00;;;14.30
19282;BMP180;9774;52.034;5.342;2022-11-15T02:06:23;100555.00;;;14.40
19282;BMP180;9774;52.034;5.342;2022-11-15T02:08:51;100560.00;;;14.40
19282;BMP180;9774;52.034;5.342;2022-11-15T02:11:18;100556.00;;;14.40
19282;BMP180;9774;52.034;5.342;2022-11-15T02:13:46;100546.00;;;14.40
19282;BMP180;9774;52.034;5.342;2022-11-15T02:16:19;100540.00;;;14.40
19282;BMP180;9774;52.034;5.342;2022-11-15T02:18:55;100535.00;;;14.40
19282;BMP180;9774;52.034;5.342;2022-11-15T02:21:30;100538.00;;;14.50
19282;BMP180;9774;52.034;5.342;2022-11-15T02:27:35;100517.00;;;14.40
19282;BMP180;9774;52.034;5.342;2022-11-15T02:30:20;100514.00;;;14.50
19282;BMP180;9774;52.034;5.342;2022-11-15T02:32:51;100518.00;;;14.60
19282;BMP180;9774;52.034;5.342;2022-11-15T02:35:28;100518.00;;;14.60
19282;BMP180;9774;52.034;5.342;2022-11-15T02:37:58;100508.00;;;14.70
19282;BMP180;9774;52.034;5.342;2022-11-15T02:40:38;100509.00;;;14.70
19282;BMP180;9774;52.034;5.342;2022-11-15T02:43:10;100505.00;;;14.70
19282;BMP180;9774;52.034;5.342;2022-11-15T02:46:01;100495.00;;;14.70
19282;BMP180;9774;52.034;5.342;2022-11-15T02:48:31;100496.00;;;14.80
19282;BMP180;9774;52.034;5.342;2022-11-15T02:50:58;100499.00;;;14.80
19282;BMP180;9774;52.034;5.342;2022-11-15T02:53:26;100498.00;;;14.90
19282;BMP180;9774;52.034;5.342;2022-11-15T02:55:55;100490.00;;;14.90
19282;BMP180;9774;52.034;5.342;2022-11-15T02:58:48;100484.00;;;14.80
19282;BMP180;9774;52.034;5.342;2022-11-15T03:01:27;100476.00;;;14.90
19282;BMP180;9774;52.034;5.342;2022-11-15T03:04:06;100479.00;;;15.00
19282;BMP180;9774;52.034;5.342;2022-11-15T03:06:42;100481.00;;;15.00
19282;BMP180;9774;52.034;5.342;2022-11-15T03:09:18;100482.00;;;15.00
19282;BMP180;9774;52.034;5.342;2022-11-15T03:11:53;100491.00;;;15.10
19282;BMP180;9774;52.034;5.342;2022-11-15T03:14:25;100488.00;;;15.10
19282;BMP180;9774;52.034;5.342;2022-11-15T03:17:01;100494.00;;;15.10
19282;BMP180;9774;52.034;5.342;2022-11-15T03:19:33;100490.00;;;15.10
19282;BMP180;9774;52.034;5.342;2022-11-15T03:22:04;100494.00;;;15.20
19282;BMP180;9774;52.034;5.342;2022-11-15T03:24:35;100494.00;;;15.20
19282;BMP180;9774;52.034;5.342;2022-11-15T03:27:03;100494.00;;;15.20
19282;BMP180;9774;52.034;5.342;2022-11-15T03:29:35;100499.00;;;15.20
19282;BMP180;9774;52.034;5.342;2022-11-15T03:32:07;100499.00;;;15.30
19282;BMP180;9774;52.034;5.342;2022-11-15T03:34:42;100495.00;;;15.30
19282;BMP180;9774;52.034;5.342;2022-11-15T03:37:14;100490.00;;;15.30
19282;BMP180;9774;52.034;5.342;2022-11-15T03:39:42;100495.00;;;15.40
19282;BMP180;9774;52.034;5.342;2022-11-15T03:42:18;100492.00;;;15.30
19282;BMP180;9774;52.034;5.342;2022-11-15T03:44:53;100495.00;;;15.40
19282;BMP180;9774;52.034;5.342;2022-11-15T03:47:27;100492.00;;;15.40
19282;BMP180;9774;52.034;5.342;2022-11-15T03:49:59;100488.00;;;15.50
19282;BMP180;9774;52.034;5.342;2022-11-15T03:52:32;100488.00;;;15.50
19282;BMP180;9774;52.034;5.342;2022-11-15T03:55:01;100489.00;;;15.50
19282;BMP180;9774;52.034;5.342;2022-11-15T03:57:29;100495.00;;;15.60
19282;BMP180;9774;52.034;5.342;2022-11-15T03:59:56;100488.00;;;15.60
19282;BMP180;9774;52.034;5.342;2022-11-15T04:02:25;100490.00;;;15.60
19282;BMP180;9774;52.034;5.342;2022-11-15T04:04:52;100486.00;;;15.70
19282;BMP180;9774;52.034;5.342;2022-11-15T04:07:20;100489.00;;;15.70
19282;BMP180;9774;52.034;5.342;2022-11-15T04:09:48;100488.00;;;15.70
19282;BMP180;9774;52.034;5.342;2022-11-15T04:12:32;100487.00;;;15.70
19282;BMP180;9774;52.034;5.342;2022-11-15T04:15:01;100490.00;;;15.70
19282;BMP180;9774;52.034;5.342;2022-11-15T04:17:41;100484.00;;;15.70
19282;BMP180;9774;52.034;5.342;2022-11-15T04:20:11;100476.00;;;15.80
19282;BMP180;9774;52.034;5.342;2022-11-15T04:22:57;100468.00;;;15.80
19282;BMP180;9774;52.034;5.342;2022-11-15T04:25:43;100464.00;;;15.90
19282;BMP180;9774;52.034;5.342;2022-11-15T04:28:11;100468.00;;;15.90
19282;BMP180;9774;52.034;5.342;2022-11-15T04:30:38;100468.00;;;15.90
19282;BMP180;9774;52.034;5.342;2022-11-15T04:33:07;100469.00;;;15.90
19282;BMP180;9774;52.034;5.342;2022-11-15T04:35:34;100471.00;;;16.00
19282;BMP180;9774;52.034;5.342;2022-11-15T04:38:04;100468.00;;;16.00
19282;BMP180;9774;52.034;5.342;2022-11-15T04:40:30;100469.00;;;16.00
19282;BMP180;9774;52.034;5.342;2022-11-15T04:42:57;100473.00;;;16.00
19282;BMP180;9774;52.034;5.342;2022-11-15T04:45:25;100474.00;;;16.10
19282;BMP180;9774;52.034;5.342;2022-11-15T04:47:52;100476.00;;;16.10
19282;BMP180;9774;52.034;5.342;2022-11-15T04:50:21;100472.00;;;16.10
19282;BMP180;9774;52.034;5.342;2022-11-15T04:52:51;100471.00;;;16.10
19282;BMP180;9774;52.034;5.342;2022-11-15T04:55:19;100469.00;;;16.10
19282;BMP180;9774;52.034;5.342;2022-11-15T04:57:46;100479.00;;;16.10
19282;BMP180;9774;52.034;5.342;2022-11-15T05:00:15;100465.00;;;16.10
19282;BMP180;9774;52.034;5.342;2022-11-15T05:02:43;100470.00;;;16.20
19282;BMP180;9774;52.034;5.342;2022-11-15T05:05:29;100472.00;;;16.20
19282;BMP180;9774;52.034;5.342;2022-11-15T05:07:56;100471.00;;;16.20
19282;BMP180;9774;52.034;5.342;2022-11-15T05:10:24;100483.00;;;16.20
19282;BMP180;9774;52.034;5.342;2022-11-15T05:12:51;100480.00;;;16.20
19282;BMP180;9774;52.034;5.342;2022-11-15T05:15:18;100479.00;;;16.20
19282;BMP180;9774;52.034;5.342;2022-11-15T05:17:45;100478.00;;;16.20
19282;BMP180;9774;52.034;5.342;2022-11-15T05:20:13;100482.00;;;16.30
19282;BMP180;9774;52.034;5.342;2022-11-15T05:22:42;100476.00;;;16.30
19282;BMP180;9774;52.034;5.342;2022-11-15T05:25:09;100481.00;;;16.30
19282;BMP180;9774;52.034;5.342;2022-11-15T05:27:36;100475.00;;;16.30
19282;BMP180;9774;52.034;5.342;2022-11-15T05:30:04;100477.00;;;16.30
19282;BMP180;9774;52.034;5.342;2022-11-15T05:32:32;100484.00;;;16.40
19282;BMP180;9774;52.034;5.342;2022-11-15T05:34:59;100476.00;;;16.40
19282;BMP180;9774;52.034;5.342;2022-11-15T05:37:26;100480.00;;;16.40
19282;BMP180;9774;52.034;5.342;2022-11-15T05:39:56;100476.00;;;16.40
19282;BMP180;9774;52.034;5.342;2022-11-15T05:42:26;100485.00;;;16.40
19282;BMP180;9774;52.034;5.342;2022-11-15T05:44:54;100488.00;;;16.50
19282;BMP180;9774;52.034;5.342;2022-11-15T05:47:24;100493.00;;;16.50
19282;BMP180;9774;52.034;5.342;2022-11-15T05:49:53;100489.00;;;16.50
19282;BMP180;9774;52.034;5.342;2022-11-15T05:52:24;100483.00;;;16.50
19282;BMP180;9774;52.034;5.342;2022-11-15T05:54:52;100494.00;;;16.50
19282;BMP180;9774;52.034;5.342;2022-11-15T05:57:21;100496.00;;;16.60
19282;BMP180;9774;52.034;5.342;2022-11-15T05:59:48;100497.00;;;16.60
19282;BMP180;9774;52.034;5.342;2022-11-15T06:02:16;100490.00;;;16.60
19282;BMP180;9774;52.034;5.342;2022-11-15T06:04:43;100497.00;;;16.60
19282;BMP180;9774;52.034;5.342;2022-11-15T06:07:10;100499.00;;;16.70
19282;BMP180;9774;52.034;5.342;2022-11-15T06:09:38;100510.00;;;16.70
19282;BMP180;9774;52.034;5.342;2022-11-15T06:12:06;100505.00;;;16.70
19282;BMP180;9774;52.034;5.342;2022-11-15T06:14:34;100498.00;;;16.70
19282;BMP180;9774;52.034;5.342;2022-11-15T06:17:02;100502.00;;;16.70
19282;BMP180;9774;52.034;5.342;2022-11-15T06:19:29;100499.00;;;16.80
19282;BMP180;9774;52.034;5.342;2022-11-15T06:21:58;100502.00;;;16.80
19282;BMP180;9774;52.034;5.342;2022-11-15T06:24:26;100505.00;;;16.80
19282;BMP180;9774;52.034;5.342;2022-11-15T06:26:54;100510.00;;;16.80
19282;BMP180;9774;52.034;5.342;2022-11-15T06:29:21;100505.00;;;16.80
19282;BMP180;9774;52.034;5.342;2022-11-15T06:31:50;100506.00;;;16.80
19282;BMP180;9774;52.034;5.342;2022-11-15T06:34:18;100504.00;;;16.90
19282;BMP180;9774;52.034;5.342;2022-11-15T06:36:45;100507.00;;;16.90
19282;BMP180;9774;52.034;5.342;2022-11-15T06:39:13;100509.00;;;16.90
19282;BMP180;9774;52.034;5.342;2022-11-15T06:41:40;100501.00;;;16.90
19282;BMP180;9774;52.034;5.342;2022-11-15T06:44:07;100511.00;;;16.90
19282;BMP180;9774;52.034;5.342;2022-11-15T06:46:35;100516.00;;;16.90
19282;BMP180;9774;52.034;5.342;2022-11-15T06:49:03;100522.00;;;16.90
19282;BMP180;9774;52.034;5.342;2022-11-15T06:51:31;100524.00;;;17.00
19282;BMP180;9774;52.034;5.342;2022-11-15T06:53:58;100530.00;;;17.00
19282;BMP180;9774;52.034;5.342;2022-11-15T06:56:25;100541.00;;;17.00
19282;BMP180;9774;52.034;5.342;2022-11-15T06:58:53;100538.00;;;17.00
19282;BMP180;9774;52.034;5.342;2022-11-15T07:01:21;100534.00;;;17.00
19282;BMP180;9774;52.034;5.342;2022-11-15T07:03:48;100538.00;;;17.00
19282;BMP180;9774;52.034;5.342;2022-11-15T07:06:17;100542.00;;;17.00
19282;BMP180;9774;52.034;5.342;2022-11-15T07:08:44;100542.00;;;17.00
19282;BMP180;9774;52.034;5.342;2022-11-15T07:11:11;100544.00;;;17.00
19282;BMP180;9774;52.034;5.342;2022-11-15T07:13:39;100538.00;;;17.00
19282;BMP180;9774;52.034;5.342;2022-11-15T07:16:09;100546.00;;;17.00
19282;BMP180;9774;52.034;5.342;2022-11-15T07:18:37;100543.00;;;17.00
19282;BMP180;9774;52.034;5.342;2022-11-15T07:21:06;100545.00;;;17.00
19282;BMP180;9774;52.034;5.342;2022-11-15T07:23:36;100544.00;;;17.00
19282;BMP180;9774;52.034;5.342;2022-11-15T07:26:04;100540.00;;;17.00
19282;BMP180;9774;52.034;5.342;2022-11-15T07:28:31;100543.00;;;17.00
19282;BMP180;9774;52.034;5.342;2022-11-15T07:31:01;100545.00;;;17.00
19282;BMP180;9774;52.034;5.342;2022-11-15T07:33:28;100546.00;;;17.00
19282;BMP180;9774;52.034;5.342;2022-11-15T07:35:59;100542.00;;;17.00
19282;BMP180;9774;52.034;5.342;2022-11-15T07:38:28;100542.00;;;17.00
19282;BMP180;9774;52.034;5.342;2022-11-15T07:41:02;100549.00;;;17.00
19282;BMP180;9774;52.034;5.342;2022-11-15T07:43:30;100540.00;;;17.10
19282;BMP180;9774;52.034;5.342;2022-11-15T07:46:03;100537.00;;;17.10
19282;BMP180;9774;52.034;5.342;2022-11-15T07:48:31;100538.00;;;17.10
19282;BMP180;9774;52.034;5.342;2022-11-15T07:50:58;100537.00;;;17.10
19282;BMP180;9774;52.034;5.342;2022-11-15T07:53:26;100530.00;;;17.10
19282;BMP180;9774;52.034;5.342;2022-11-15T07:55:53;100527.00;;;17.10
19282;BMP180;9774;52.034;5.342;2022-11-15T07:58:22;100521.00;;;17.10
19282;BMP180;9774;52.034;5.342;2022-11-15T08:00:49;100535.00;;;17.10
19282;BMP180;9774;52.034;5.342;2022-11-15T08:03:17;100533.00;;;17.10
19282;BMP180;9774;52.034;5.342;2022-11-15T08:05:50;100533.00;;;17.10
19282;BMP180;9774;52.034;5.342;2022-11-15T08:08:18;100530.00;;;17.20
19282;BMP180;9774;52.034;5.342;2022-11-15T08:10:45;100529.00;;;17.20
19282;BMP180;9774;52.034;5.342;2022-11-15T08:13:13;100523.00;;;17.20
19282;BMP180;9774;52.034;5.342;2022-11-15T08:15:42;100524.00;;;17.20
19282;BMP180;9774;52.034;5.342;2022-11-15T08:18:11;100519.00;;;17.20
19282;BMP180;9774;52.034;5.342;2022-11-15T08:20:39;100522.00;;;17.20
19282;BMP180;9774;52.034;5.342;2022-11-15T08:23:07;100525.00;;;17.20
19282;BMP180;9774;52.034;5.342;2022-11-15T08:25:35;100531.00;;;17.20
19282;BMP180;9774;52.034;5.342;2022-11-15T08:28:04;100521.00;;;17.20
19282;BMP180;9774;52.034;5.342;2022-11-15T08:30:36;100524.00;;;17.20
19282;BMP180;9774;52.034;5.342;2022-11-15T08:33:05;100525.00;;;17.30
19282;BMP180;9774;52.034;5.342;2022-11-15T08:35:33;100522.00;;;17.30
19282;BMP180;9774;52.034;5.342;2022-11-15T08:38:01;100521.00;;;17.30
19282;BMP180;9774;52.034;5.342;2022-11-15T08:40:28;100521.00;;;17.30
19282;BMP180;9774;52.034;5.342;2022-11-15T08:42:55;100508.00;;;17.30
19282;BMP180;9774;52.034;5.342;2022-11-15T08:45:24;100511.00;;;17.30
19282;BMP180;9774;52.034;5.342;2022-11-15T08:47:52;100516.00;;;17.40
19282;BMP180;9774;52.034;5.342;2022-11-15T08:50:20;100501.00;;;17.40
19282;BMP180;9774;52.034;5.342;2022-11-15T08:52:49;100499.00;;;17.40
19282;BMP180;9774;52.034;5.342;2022-11-15T08:55:16;100504.00;;;17.40
19282;BMP180;9774;52.034;5.342;2022-11-15T08:57:43;100508.00;;;17.50
19282;BMP180;9774;52.034;5.342;2022-11-15T09:00:12;100505.00;;;17.50
19282;BMP180;9774;52.034;5.342;2022-11-15T09:02:40;100508.00;;;17.50
19282;BMP180;9774;52.034;5.342;2022-11-15T09:05:08;100511.00;;;17.50
19282;BMP180;9774;52.034;5.342;2022-11-15T09:07:37;100505.00;;;17.50
19282;BMP180;9774;52.034;5.342;2022-11-15T09:10:04;100505.00;;;17.60
19282;BMP180;9774;52.034;5.342;2022-11-15T09:12:32;100504.00;;;17.60
19282;BMP180;9774;52.034;5.342;2022-11-15T09:14:59;100501.00;;;17.70
19282;BMP180;9774;52.034;5.342;2022-11-15T09:17:26;100502.00;;;17.70
19282;BMP180;9774;52.034;5.342;2022-11-15T09:19:54;100494.00;;;17.70
19282;BMP180;9774;52.034;5.342;2022-11-15T09:22:21;100500.00;;;17.70
19282;BMP180;9774;52.034;5.342;2022-11-15T09:24:50;100496.00;;;17.70
19282;BMP180;9774;52.034;5.342;2022-11-15T09:27:17;100490.00;;;17.70
19282;BMP180;9774;52.034;5.342;2022-11-15T09:29:44;100484.00;;;17.80
19282;BMP180;9774;52.034;5.342;2022-11-15T09:32:11;100484.00;;;17.80
19282;BMP180;9774;52.034;5.342;2022-11-15T09:34:39;100483.00;;;17.80
19282;BMP180;9774;52.034;5.342;2022-11-15T09:37:06;100483.00;;;17.80
19282;BMP180;9774;52.034;5.342;2022-11-15T09:39:33;100480.00;;;17.80
19282;BMP180;9774;52.034;5.342;2022-11-15T09:42:25;100482.00;;;17.70
19282;BMP180;9774;52.034;5.342;2022-11-15T09:45:10;100472.00;;;17.70
19282;BMP180;9774;52.034;5.342;2022-11-15T09:50:50;100475.00;;;17.90
19282;BMP180;9774;52.034;5.342;2022-11-15T09:53:24;100474.00;;;17.90
19282;BMP180;9774;52.034;5.342;2022-11-15T09:55:57;100486.00;;;17.90
19282;BMP180;9774;52.034;5.342;2022-11-15T09:58:35;100477.00;;;17.90
19282;BMP180;9774;52.034;5.342;2022-11-15T10:01:07;100478.00;;;17.90
19282;BMP180;9774;52.034;5.342;2022-11-15T10:03:36;100476.00;;;18.00
19282;BMP180;9774;52.034;5.342;2022-11-15T10:06:19;100487.00;;;18.00
19282;BMP180;9774;52.034;5.342;2022-11-15T10:08:54;100470.00;;;18.00
19282;BMP180;9774;52.034;5.342;2022-11-15T10:11:24;100469.00;;;18.00
19282;BMP180;9774;52.034;5.342;2022-11-15T10:13:56;100465.00;;;18.00
19282;BMP180;9774;52.034;5.342;2022-11-15T10:16:41;100466.00;;;18.00
19282;BMP180;9774;52.034;5.342;2022-11-15T10:19:20;100466.00;;;18.10
19282;BMP180;9774;52.034;5.342;2022-11-15T10:21:59;100457.00;;;18.10
19282;BMP180;9774;52.034;5.342;2022-11-15T10:24:28;100452.00;;;18.20
19282;BMP180;9774;52.034;5.342;2022-11-15T10:26:59;100447.00;;;18.30
19282;BMP180;9774;52.034;5.342;2022-11-15T10:29:28;100441.00;;;18.30
19282;BMP180;9774;52.034;5.342;2022-11-15T10:31:55;100432.00;;;18.30
19282;BMP180;9774;52.034;5.342;2022-11-15T10:34:23;100434.00;;;18.30
19282;BMP180;9774;52.034;5.342;2022-11-15T10:36:56;100438.00;;;18.30
19282;BMP180;9774;52.034;5.342;2022-11-15T10:39:24;100433.00;;;18.30
19282;BMP180;9774;52.034;5.342;2022-11-15T10:41:52;100441.00;;;18.40
19282;BMP180;9774;52.034;5.342;2022-11-15T10:44:26;100434.00;;;18.40
19282;BMP180;9774;52.034;5.342;2022-11-15T10:47:23;100421.00;;;18.30
19282;BMP180;9774;52.034;5.342;2022-11-15T10:49:58;100411.00;;;18.30
19282;BMP180;9774;52.034;5.342;2022-11-15T10:52:27;100406.00;;;18.40
19282;BMP180;9774;52.034;5.342;2022-11-15T10:54:59;100404.00;;;18.40
19282;BMP180;9774;52.034;5.342;2022-11-15T10:57:28;100408.00;;;18.40
19282;BMP180;9774;52.034;5.342;2022-11-15T10:59:59;100403.00;;;18.40
19282;BMP180;9774;52.034;5.342;2022-11-15T11:02:36;100399.00;;;18.40
19282;BMP180;9774;52.034;5.342;2022-11-15T11:05:06;100392.00;;;18.50
19282;BMP180;9774;52.034;5.342;2022-11-15T11:07:35;100394.00;;;18.50
19282;BMP180;9774;52.034;5.342;2022-11-15T11:10:05;100388.00;;;18.50
19282;BMP180;9774;52.034;5.342;2022-11-15T11:12:43;100402.00;;;18.50
19282;BMP180;9774;52.034;5.342;2022-11-15T11:15:13;100398.00;;;18.60
19282;BMP180;9774;52.034;5.342;2022-11-15T11:17:56;100386.00;;;18.50
19282;BMP180;9774;52.034;5.342;2022-11-15T11:20:29;100391.00;;;18.60
19282;BMP180;9774;52.034;5.342;2022-11-15T11:23:10;100384.00;;;18.60
19282;BMP180;9774;52.034;5.342;2022-11-15T11:25:50;100389.00;;;18.70
19282;BMP180;9774;52.034;5.342;2022-11-15T11:28:33;100390.00;;;18.70
19282;BMP180;9774;52.034;5.342;2022-11-15T11:31:18;100391.00;;;18.70
19282;BMP180;9774;52.034;5.342;2022-11-15T11:33:54;100380.00;;;18.70
19282;BMP180;9774;52.034;5.342;2022-11-15T11:36:30;100374.00;;;18.70
19282;BMP180;9774;52.034;5.342;2022-11-15T11:39:19;100363.00;;;18.70
19282;BMP180;9774;52.034;5.342;2022-11-15T11:41:58;100364.00;;;18.80
19282;BMP180;9774;52.034;5.342;2022-11-15T11:44:33;100359.00;;;18.90
19282;BMP180;9774;52.034;5.342;2022-11-15T11:47:03;100364.00;;;18.90
19282;BMP180;9774;52.034;5.342;2022-11-15T11:49:41;100364.00;;;18.90
19282;BMP180;9774;52.034;5.342;2022-11-15T11:52:13;100348.00;;;19.00
19282;BMP180;9774;52.034;5.342;2022-11-15T11:54:48;100336.00;;;19.10
19282;BMP180;9774;52.034;5.342;2022-11-15T11:57:23;100332.00;;;19.10
19282;BMP180;9774;52.034;5.342;2022-11-15T11:59:56;100330.00;;;19.20
19282;BMP180;9774;52.034;5.342;2022-11-15T12:02:28;100321.00;;;19.30
19282;BMP180;9774;52.034;5.342;2022-11-15T12:05:07;100316.00;;;19.30
19282;BMP180;9774;52.034;5.342;2022-11-15T12:07:39;100318.00;;;19.30
19282;BMP180;9774;52.034;5.342;2022-11-15T12:10:15;100319.00;;;19.30
19282;BMP180;9774;52.034;5.342;2022-11-15T12:12:50;100323.00;;;19.30
19282;BMP180;9774;52.034;5.342;2022-11-15T12:15:21;100310.00;;;19.30
19282;BMP180;9774;52.034;5.342;2022-11-15T12:17:49;100306.00;;;19.40
19282;BMP180;9774;52.034;5.342;2022-11-15T12:20:20;100294.00;;;19.30
19282;BMP180;9774;52.034;5.342;2022-11-15T12:22:53;100284.00;;;19.30
19282;BMP180;9774;52.034;5.342;2022-11-15T12:25:26;100282.00;;;19.30
19282;BMP180;9774;52.034;5.342;2022-11-15T12:27:57;100283.00;;;19.40
19282;BMP180;9774;52.034;5.342;2022-11-15T12:30:42;100283.00;;;19.30
19282;BMP180;9774;52.034;5.342;2022-11-15T12:33:29;100281.00;;;19.30
19282;BMP180;9774;52.034;5.342;2022-11-15T12:36:00;100269.00;;;19.50
19282;BMP180;9774;52.034;5.342;2022-11-15T12:38:58;100262.00;;;19.40
19282;BMP180;9774;52.034;5.342;2022-11-15T12:41:27;100266.00;;;19.60
19282;BMP180;9774;52.034;5.342;2022-11-15T12:43:55;100260.00;;;19.60
19282;BMP180;9774;52.034;5.342;2022-11-15T12:47:00;100257.00;;;19.50
19282;BMP180;9774;52.034;5.342;2022-11-15T12:49:45;100248.00;;;19.70
19282;BMP180;9774;52.034;5.342;2022-11-15T12:52:15;100248.00;;;19.90
19282;BMP180;9774;52.034;5.342;2022-11-15T12:54:54;100241.00;;;20.00
19282;BMP180;9774;52.034;5.342;2022-11-15T12:57:45;100234.00;;;20.10
19282;BMP180;9774;52.034;5.342;2022-11-15T13:00:43;100226.00;;;20.40
19282;BMP180;9774;52.034;5.342;2022-11-15T13:03:26;100223.00;;;20.60
19282;BMP180;9774;52.034;5.342;2022-11-15T13:05:59;100210.00;;;20.70
19282;BMP180;9774;52.034;5.342;2022-11-15T13:08:52;100209.00;;;20.80
19282;BMP180;9774;52.034;5.342;2022-11-15T13:11:44;100211.00;;;20.90
19282;BMP180;9774;52.034;5.342;2022-11-15T13:14:41;100210.00;;;20.90
19282;BMP180;9774;52.034;5.342;2022-11-15T13:17:28;100209.00;;;21.00
19282;BMP180;9774;52.034;5.342;2022-11-15T13:22:45;100198.00;;;21.10
19282;BMP180;9774;52.034;5.342;2022-11-15T13:28:21;100195.00;;;21.00
19282;BMP180;9774;52.034;5.342;2022-11-15T13:30:51;100187.00;;;21.00
19282;BMP180;9774;52.034;5.342;2022-11-15T13:33:22;100187.00;;;21.00
19282;BMP180;9774;52.034;5.342;2022-11-15T13:35:51;100180.00;;;20.90
19282;BMP180;9774;52.034;5.342;2022-11-15T13:38:27;100174.00;;;20.80
19282;BMP180;9774;52.034;5.342;2022-11-15T13:40:57;100179.00;;;20.70
19282;BMP180;9774;52.034;5.342;2022-11-15T13:43:29;100170.00;;;20.60
19282;BMP180;9774;52.034;5.342;2022-11-15T13:46:06;100164.00;;;20.50
19282;BMP180;9774;52.034;5.342;2022-11-15T13:48:33;100160.00;;;20.50
19282;BMP180;9774;52.034;5.342;2022-11-15T13:51:01;100159.00;;;20.40
19282;BMP180;9774;52.034;5.342;2022-11-15T13:53:31;100155.00;;;20.20
19282;BMP180;9774;52.034;5.342;2022-11-15T13:56:00;100152.00;;;20.10
19282;BMP180;9774;52.034;5.342;2022-11-15T13:58:30;100147.00;;;20.10
19282;BMP180;9774;52.034;5.342;2022-11-15T14:01:00;100144.00;;;19.90
19282;BMP180;9774;52.034;5.342;2022-11-15T14:03:29;100139.00;;;19.80
19282;BMP180;9774;52.034;5.342;2022-11-15T14:06:06;100140.00;;;19.70
19282;BMP180;9774;52.034;5.342;2022-11-15T14:08:34;100125.00;;;19.70
19282;BMP180;9774;52.034;5.342;2022-11-15T14:11:13;100127.00;;;19.50
19282;BMP180;9774;52.034;5.342;2022-11-15T14:13:42;100123.00;;;19.50
19282;BMP180;9774;52.034;5.342;2022-11-15T14:16:33;100130.00;;;19.30
19282;BMP180;9774;52.034;5.342;2022-11-15T14:19:03;100113.00;;;19.30
19282;BMP180;9774;52.034;5.342;2022-11-15T14:21:31;100113.00;;;19.30
19282;BMP180;9774;52.034;5.342;2022-11-15T14:24:13;100109.00;;;19.10
19282;BMP180;9774;52.034;5.342;2022-11-15T14:26:42;100098.00;;;19.10
19282;BMP180;9774;52.034;5.342;2022-11-15T14:29:22;100102.00;;;19.00
19282;BMP180;9774;52.034;5.342;2022-11-15T14:31:50;100097.00;;;19.00
19282;BMP180;9774;52.034;5.342;2022-11-15T14:34:17;100099.00;;;19.00
19282;BMP180;9774;52.034;5.342;2022-11-15T14:36:45;100099.00;;;18.90
19282;BMP180;9774;52.034;5.342;2022-11-15T14:39:12;100092.00;;;18.90
19282;BMP180;9774;52.034;5.342;2022-11-15T14:41:39;100085.00;;;18.80
19282;BMP180;9774;52.034;5.342;2022-11-15T14:44:11;100078.00;;;18.70